• Join FlightAware (Why Join?)
  • Login
  • US Flag 
04:20AM EST


 

Airport Tracker/Info


-or-


 

Live Flight TrackerFlight Track Log ✈ SWA1969 ✈ 11-Apr-2013 ✈ KMDW - KMHT

Flight Track Log - Related Links

Times and Time Zones

All times are in EDT time to prevent confusion due to time zone crossing. See the SWA1969 flight status page for this flight to view local times or setup timezone preferences in your user account.

Time Position Orientation Groundspeed Altitude Reporting Facility
EDT Latitude Longitude Course Direction KTS MPH feet Rate Location/Type
11:20AM 41.8000 -87.7333 90° East 147 169 1,700  Level Chicago TRACON
11:21AM 41.8000 -87.6500 90° East 225 259 4,200 1,740 Climbing Chicago TRACON
11:22AM 41.8144 -87.5850 73° East 232 267 5,100 780 Climbing Chicago Center
11:23AM 41.8153 -87.4811 89° East 265 305 5,700 2,340 Climbing Chicago Center
11:24AM 41.8008 -87.3750 100° East 283 326 9,900 3,960 Climbing Chicago Center
11:25AM 41.7925 -87.2656 96° East 292 336 13,900 2,460 Climbing Chicago Center
11:26AM 41.8061 -87.1378 82° East 343 395 15,000 1,020 Climbing Chicago Center
11:27AM 41.8358 -87.0131 72° East 352 405 16,000 720 Climbing Chicago Center
11:28AM 41.8711 -86.8869 69° East 359 413 16,500 1,440 Climbing Chicago Center
11:29AM 41.9128 -86.7256 71° East 378 435 19,000 1,200 Climbing Chicago Center
11:30AM 41.9447 -86.6064 70° East 398 458 19,000 780 Level Chicago Center
11:31AM 41.9911 -86.4364 70° East 404 465 20,700 2,040 Climbing Chicago Center
11:32AM 42.0294 -86.2789 72° East 433 498 23,200 2,340 Climbing Chicago Center
11:33AM 42.0383 -86.1067 86° East 458 527 25,600 2,520 Climbing Chicago Center
11:34AM 42.0467 -85.9453 86° East 465 535 28,400 2,340 Climbing Chicago Center
11:35AM 42.0547 -85.7767 86° East 460 529 30,500 1,860 Climbing Chicago Center
11:36AM 42.0650 -85.5639 86° East 477 549 32,300 1,620 Climbing Chicago Center
11:37AM 42.0736 -85.3789 86° East 494 568 33,900 1,560 Climbing Chicago Center
11:38AM 42.0842 -85.2422 84° East 497 572 35,200 1,680 Climbing Cleveland Center
11:39AM 42.0919 -85.0494 87° East 502 578 36,900 1,500 Climbing Cleveland Center
11:40AM 42.0969 -84.8597 88° East 502 578 38,200 1,200 Climbing Cleveland Center
11:41AM 42.1081 -84.6700 85° East 502 578 39,300 1,080 Climbing Cleveland Center
11:42AM 42.1128 -84.4769 88° East 507 583 40,400 840 Climbing Cleveland Center
11:43AM 42.1219 -84.2619 87° East 512 589 41,000 300 Climbing Cleveland Center
11:44AM 42.1233 -84.0883 89° East 512 589 41,000  Level Cleveland Center
11:45AM 42.1317 -83.8733 87° East 518 596 41,000  Level Cleveland Center
11:46AM 42.1350 -83.6831 89° East 518 596 41,000  Level Cleveland Center
11:47AM 42.1422 -83.4844 87° East 518 596 41,000  Level Cleveland Center
11:48AM 42.1450 -83.2856 89° East 513 590 41,000  Level Cleveland Center
11:49AM 42.1533 -83.0928 87° East 513 590 41,000  Level Cleveland Center
11:50AM 42.1575 -82.8997 88° East 513 590 41,000  Level Cleveland Center
11:51AM 42.1633 -82.7067 88° East 513 590 41,000  Level Cleveland Center
11:52AM 42.1647 -82.5078 89° East 513 590 41,000  Level Cleveland Center
11:53AM 42.1719 -82.3144 87° East 513 590 41,000  Level Cleveland Center
11:54AM 42.1728 -82.1156 90° East 513 590 41,000  Level Cleveland Center
11:55AM 42.1772 -81.9169 88° East 513 590 41,000  Level Cleveland Center
11:56AM 42.1794 -81.7236 89° East 513 590 41,000  Level Cleveland Center
11:57AM 42.1833 -81.5275 88° East 513 590 41,000  Level Cleveland Center
11:58AM 42.1867 -81.3539 88° East 513 590 41,000  Level Cleveland Center
11:59AM 42.1878 -81.1633 89° East 513 590 41,000  Level Cleveland Center
12:00PM 42.1906 -80.9700 89° East 513 590 41,000  Level Cleveland Center
12:01PM 42.1933 -80.7736 89° East 513 590 41,000  Level Cleveland Center
12:02PM 42.1914 -80.5553 91° East 519 597 41,000  Level Cleveland Center
12:03PM 42.1911 -80.3589 90° East 519 597 41,000  Level Cleveland Center
12:04PM 42.1928 -80.1825 89° East 519 597 41,000  Level Cleveland Center
12:05PM 42.1919 -79.9750 90° East 506 582 41,000  Level Cleveland Center
12:06PM 42.1928 -79.7789 90° East 501 577 41,000  Level Cleveland Center
12:07PM 42.1914 -79.5911 91° East 501 577 41,000  Level Cleveland Center
12:08PM 42.1914 -79.3978 90° East 506 582 41,000  Level Cleveland Center
12:09PM 42.1894 -79.2044 91° East 506 582 41,000  Level Cleveland Center
12:10PM 42.2036 -79.0136 84° East 511 588 41,000  Level Cleveland Center
12:11PM 42.2278 -78.8194 80° East 521 600 41,000  Level Cleveland Center
12:12PM 42.2519 -78.6281 80° East 521 600 41,000  Level Cleveland Center
12:13PM 42.2756 -78.4392 80° East 521 600 41,000  Level Cleveland Center
12:14PM 42.2989 -78.2475 81° East 521 600 41,000  Level Cleveland Center
12:15PM 42.3222 -78.0583 80° East 516 594 41,000  Level Cleveland Center
12:17PM 42.3650 -77.6792 81° East 493 567 41,000  Level Boston Center
12:18PM 42.3861 -77.4839 82° East 505 581 41,000  Level Boston Center
12:19PM 42.4089 -77.3003 80° East 505 581 41,000  Level Boston Center
12:20PM 42.4294 -77.1103 82° East 505 581 41,000  Level Boston Center
12:21PM 42.4494 -76.9203 82° East 500 575 41,000  Level Boston Center
12:22PM 42.4714 -76.7361 81° East 500 575 41,000  Level Boston Center
12:23PM 42.4908 -76.5486 82° East 500 575 41,000  Level Boston Center
12:24PM 42.5119 -76.3614 81° East 500 575 41,000  Level Boston Center
12:25PM 42.5308 -76.1708 82° East 500 575 41,000  Level Boston Center
12:26PM 42.5494 -75.9803 82° East 500 575 41,000  Level Boston Center
12:27PM 42.5697 -75.7925 82° East 500 575 41,000  Level Boston Center
12:28PM 42.5878 -75.6017 83° East 500 575 41,000 -120 Level Boston Center
12:29PM 42.6053 -75.4133 83° East 500 575 40,800 -1,260 Descending Boston Center
12:30PM 42.6225 -75.2308 83° East 500 575 38,500 -2,280 Descending Boston Center
12:31PM 42.6417 -75.0397 82° East 500 575 36,300 -2,520 Descending Boston Center
12:32PM 42.6583 -74.8539 83° East 500 575 33,600 -2,580 Descending Boston Center
12:33PM 42.6725 -74.6711 84° East 500 575 31,300 -2,280 Descending Boston Center
12:34PM 42.6883 -74.4908 83° East 500 575 29,100 -1,620 Descending Boston Center
12:35PM 42.7014 -74.3358 83° East 478 550 28,100 -1,080 Descending Boston Center
12:36PM 42.7167 -74.1667 83° East 459 528 27,000 -1,080 Descending Boston Center
12:37PM 42.7294 -73.9975 84° East 454 522 26,000 -1,020 Descending Boston Center
12:38PM 42.7442 -73.8311 83° East 449 517 25,000 -960 Descending Boston Center
12:39PM 42.7544 -73.6672 85° East 439 505 24,100 -1,020 Descending Boston Center
12:40PM 42.7603 -73.4978 87° East 439 505 23,100 -1,080 Descending Boston Center
12:41PM 42.7658 -73.3367 87° East 439 505 22,100 -1,020 Descending Boston Center
12:42PM 42.7711 -73.1725 87° East 439 505 21,100 -1,020 Descending Boston Center
12:43PM 42.7761 -73.0172 87° East 429 494 20,100 -1,020 Descending Boston Center
12:44PM 42.7811 -72.8247 88° East 434 499 19,100 -960 Descending Boston Center
12:45PM 42.7858 -72.6750 87° East 440 506 18,300 -1,620 Descending Boston Center
12:46PM 42.7900 -72.5022 88° East 446 513 16,000 -2,520 Descending Boston Center
12:47PM 42.7942 -72.3297 88° East 451 519 13,300 -2,640 Descending Boston Center
12:48PM 42.8064 -72.1458 85° East 451 519 10,700 -1,680 Descending Boston Center
12:49PM 42.8164 -72.0128 84° East 417 480 10,000 -900 Descending Boston Center
12:50PM 42.8261 -71.8683 85° East 362 417 9,000 -1,080 Descending Boston Center
12:51PM 42.8214 -71.7578 93° East 324 373 7,900 -1,500 Descending Boston Center
12:53PM 42.7867 -71.5461 103° East 283 326 4,600 -1,620 Descending Boston Center
12:54PM 42.7525 -71.4447 115° Southeast 269 310 3,200 -900 Descending Boston Center
12:55PM 42.7811 -71.3792 59° Northeast 213 245 2,800 -480 Descending Boston Center
12:56PM 42.8311 -71.3756 North 125 144 2,300 -660 Descending Boston Center
12:57PM 42.8667 -71.3978 335° Northwest 140 161 1,500 -720 Descending Boston Center
12:58PM 42.9022 -71.4169 338° Northwest 131 151 700 -540 Descending Boston Center
12:59PM 42.9400 -71.4333 342° North 126 145 400 4,200 Descending Boston Center
01:00PM 42.9714 -71.4469 342° North 126 145 9,000 3,900 Climbing Boston Center
01:01PM 43.0028 -71.4606 342° North 126 145 9,000  Level Boston Center
01:02PM 43.0403 -71.4769 342° North 126 145 9,000  Level Boston Center
01:03PM 43.0467 -71.4797 342° North 126 145 9,000  Level Boston Center
01:05PM 42.9328 -71.4358 168° South  Level Estimated
01:12PM 42.9328 -71.4358 168° South  Level Estimated
01:13PM 42.9328 -71.4358 168° South  Level Estimated
01:14PM 42.9328 -71.4358 168° South  Level Estimated
01:15PM 42.9328 -71.4358 168° South  Level Estimated